createdAt,value
2022-12-08T02:39:28.242Z,42.54
2022-12-08T02:52:35.983Z,44.21
2022-12-08T05:13:10.268Z,42.48
2022-12-08T06:03:25.687Z,40.05
2022-12-08T06:06:49.392Z,39.77
2022-12-08T06:09:35.435Z,39.38
2022-12-08T06:12:46.805Z,39.27
2022-12-08T06:15:29.903Z,39.33
2022-12-08T06:18:51.329Z,39.39
2022-12-08T06:21:30.349Z,39.27
2022-12-08T06:24:30.798Z,39.27
2022-12-08T06:27:38.702Z,39.55
2022-12-08T06:30:34.154Z,39.04
2022-12-08T06:34:17.635Z,39.16
2022-12-08T06:37:21.240Z,39.67
2022-12-08T06:40:28.543Z,39.56
2022-12-08T06:46:46.993Z,38.75
2022-12-08T06:49:47.104Z,38.47
2022-12-08T07:02:11.736Z,38.72
2022-12-08T07:13:25.500Z,38.27
2022-12-08T07:17:24.886Z,38.52
2022-12-08T07:32:54.693Z,38.87
2022-12-08T07:36:25.389Z,38.45
2022-12-08T07:48:55.130Z,37.77
2022-12-08T07:55:57.464Z,37.39
2022-12-08T08:02:38.142Z,37.44
2022-12-08T08:06:14.631Z,37.24
2022-12-08T08:09:46.510Z,37.16
2022-12-08T08:13:46.832Z,37.22
2022-12-08T08:18:07.168Z,37.94
2022-12-08T08:23:16.573Z,37.63
2022-12-08T08:26:46.355Z,37.17
2022-12-08T08:38:21.529Z,37.13
2022-12-08T08:41:38.964Z,36.93
2022-12-08T08:45:36.712Z,37.56
2022-12-08T08:48:52.242Z,37.08
2022-12-08T08:57:55.103Z,37.43
2022-12-08T09:01:13.817Z,37.10
2022-12-08T09:04:10.511Z,37.06
2022-12-08T09:07:17.157Z,37.26
2022-12-08T09:10:52.930Z,37.10
2022-12-08T09:14:02.384Z,36.82
2022-12-08T09:16:42.131Z,36.80
2022-12-08T09:19:34.862Z,36.79
2022-12-08T09:22:20.811Z,36.71
2022-12-08T09:24:52.362Z,36.66
2022-12-08T09:27:34.809Z,36.56
2022-12-08T09:30:09.645Z,36.90
2022-12-08T09:33:01.961Z,36.82
2022-12-08T09:36:00.156Z,36.73
2022-12-08T09:43:19.985Z,36.89
2022-12-08T10:34:46.683Z,37.70
2022-12-08T10:37:45.193Z,37.50
2022-12-08T10:40:45.597Z,37.92
2022-12-08T10:43:45.403Z,37.43
2022-12-08T10:46:33.974Z,37.64
2022-12-08T10:49:48.800Z,37.72
2022-12-08T10:52:43.273Z,38.73
2022-12-08T10:55:41.238Z,37.75
2022-12-08T10:59:21.085Z,37.94
2022-12-08T11:06:36.763Z,37.81
2022-12-08T11:09:42.690Z,37.72
2022-12-08T11:12:54.215Z,37.57
2022-12-08T11:15:42.281Z,37.35
2022-12-08T11:18:43.292Z,37.37
2022-12-08T11:21:21.347Z,37.28
2022-12-08T11:23:54.790Z,37.12
2022-12-08T11:27:01.337Z,37.28
2022-12-08T11:29:50.555Z,37.26
2022-12-08T11:32:27.597Z,36.94
2022-12-08T11:35:44.984Z,36.86
2022-12-08T11:39:10.855Z,36.94
2022-12-08T11:42:47.206Z,37.04
2022-12-08T11:45:46.355Z,36.96
2022-12-08T11:57:16.439Z,37.87
2022-12-08T12:00:03.839Z,37.08
2022-12-08T12:04:03.319Z,37.23
2022-12-08T12:07:09.254Z,38.26
2022-12-08T12:10:55.109Z,38.46
2022-12-08T12:14:39.294Z,38.33
2022-12-08T12:17:37.070Z,37.59
2022-12-08T12:20:18.696Z,37.24
2022-12-08T12:23:04.731Z,37.01
2022-12-08T12:25:50.156Z,37.01
2022-12-08T12:28:20.725Z,36.98
2022-12-08T12:31:04.975Z,36.92
2022-12-08T12:33:37.241Z,36.78
2022-12-08T12:36:10.629Z,36.70
2022-12-08T12:39:11.167Z,36.74
2022-12-08T12:41:57.314Z,36.89
2022-12-08T12:44:37.879Z,37.00
2022-12-08T12:47:16.446Z,36.97
2022-12-08T12:49:49.763Z,37.21
2022-12-08T12:52:25.121Z,37.79
2022-12-08T12:55:13.520Z,37.93
2022-12-08T12:58:02.655Z,38.09
2022-12-08T13:00:36.685Z,38.03
2022-12-08T13:03:20.985Z,38.06
2022-12-08T13:05:54.051Z,37.96
2022-12-08T13:08:30.537Z,37.91
2022-12-08T13:11:10.210Z,37.76
2022-12-08T13:13:59.057Z,37.77
2022-12-08T13:16:38.696Z,37.95
2022-12-08T13:19:18.493Z,38.00
2022-12-08T13:21:53.734Z,37.16
2022-12-08T13:24:30.753Z,36.92
2022-12-08T13:27:06.378Z,36.72
2022-12-08T13:29:40.963Z,36.69
2022-12-08T13:32:10.729Z,36.88
2022-12-08T13:34:55.573Z,37.09
2022-12-08T13:37:55.239Z,37.14
2022-12-08T13:40:34.982Z,37.14
2022-12-08T13:43:44.826Z,37.16
2022-12-08T13:47:09.469Z,37.33
2022-12-08T13:58:34.547Z,39.01
2022-12-08T14:01:23.026Z,39.27
2022-12-08T14:04:34.061Z,39.44
2022-12-08T14:07:13.612Z,39.39
2022-12-08T14:09:44.884Z,39.57
2022-12-08T14:12:22.607Z,39.11
2022-12-08T14:15:06.717Z,39.27
2022-12-08T14:17:38.176Z,39.66
2022-12-08T14:20:22.670Z,39.55
2022-12-08T14:23:10.238Z,39.58
2022-12-08T14:25:49.088Z,39.92
2022-12-08T14:28:20.692Z,39.90
2022-12-08T14:30:59.383Z,40.04
2022-12-08T14:33:34.066Z,40.22
2022-12-08T14:36:04.893Z,40.68
2022-12-08T14:38:36.601Z,40.59
2022-12-08T14:41:13.918Z,41.14
2022-12-08T14:43:44.883Z,40.99
2022-12-08T14:46:25.329Z,41.71
2022-12-08T14:49:06.813Z,41.76
2022-12-08T14:51:39.038Z,41.59
2022-12-08T14:54:17.453Z,40.89
2022-12-08T14:57:05.751Z,41.58
2022-12-08T14:59:41.838Z,41.36
2022-12-08T15:02:22.563Z,41.03
2022-12-08T15:05:21.216Z,41.13
2022-12-08T15:08:05.181Z,41.18
2022-12-08T15:10:52.734Z,41.22
2022-12-08T15:13:29.053Z,40.93
2022-12-08T15:16:43.006Z,41.96
2022-12-08T15:19:37.144Z,41.07
2022-12-08T15:22:25.582Z,41.74
2022-12-08T15:25:37.632Z,42.05
2022-12-08T15:28:18.865Z,41.82
2022-12-08T15:30:50.287Z,41.33
2022-12-08T15:33:34.520Z,41.20
2022-12-08T15:36:10.643Z,41.17
2022-12-08T15:38:41.078Z,41.31
2022-12-08T15:41:14.897Z,41.59
2022-12-08T15:43:47.194Z,41.55
2022-12-08T15:46:18.604Z,41.40
2022-12-08T15:48:56.448Z,41.39
2022-12-08T15:51:39.015Z,41.63
2022-12-08T15:54:14.133Z,41.79
2022-12-08T15:57:19.065Z,41.88
2022-12-08T15:59:54.667Z,41.84
2022-12-08T16:03:11.439Z,41.83
2022-12-08T16:05:44.489Z,42.21
2022-12-08T16:08:45.171Z,41.77
2022-12-08T16:12:04.728Z,42.18
2022-12-08T16:15:39.726Z,42.53
2022-12-08T16:17:33.948Z,41.69
2022-12-08T16:20:06.944Z,41.38
2022-12-08T16:26:08.861Z,41.76
2022-12-08T16:28:54.468Z,42.25
2022-12-08T16:31:34.504Z,42.09
2022-12-08T16:34:13.117Z,42.37
2022-12-08T16:36:45.683Z,42.96
2022-12-08T16:39:15.313Z,43.61
2022-12-08T16:42:09.120Z,44.19
2022-12-08T16:44:47.043Z,44.81
2022-12-08T16:47:22.050Z,44.67
2022-12-08T16:49:51.584Z,44.65
2022-12-08T16:52:32.456Z,44.42
2022-12-08T16:55:18.159Z,44.42
2022-12-08T16:57:50.344Z,44.16
2022-12-08T17:00:24.989Z,43.60
2022-12-08T17:03:05.010Z,43.33
2022-12-08T17:05:37.059Z,43.63
2022-12-08T17:08:13.216Z,43.94
2022-12-08T17:10:45.983Z,44.29
2022-12-08T17:13:21.640Z,43.68
2022-12-08T17:15:51.540Z,43.57
2022-12-08T17:18:22.621Z,43.34
2022-12-08T17:21:03.346Z,42.96
2022-12-08T17:23:46.122Z,42.75
2022-12-08T17:26:17.029Z,42.43
2022-12-08T17:29:05.803Z,42.28
2022-12-08T17:31:37.345Z,42.16
2022-12-08T17:34:13.693Z,42.10
2022-12-08T17:36:46.160Z,42.13
2022-12-08T17:39:24.719Z,41.96
2022-12-08T17:42:03.314Z,41.70
2022-12-08T17:44:39.166Z,41.67
2022-12-08T17:47:12.224Z,41.67
2022-12-08T17:49:42.521Z,41.74
2022-12-08T17:52:14.219Z,41.75
2022-12-08T17:54:45.772Z,41.56
2022-12-08T17:57:45.961Z,42.35
2022-12-08T18:00:20.878Z,41.68
2022-12-08T18:03:28.066Z,41.70
2022-12-08T18:06:14.774Z,41.71
2022-12-08T18:08:52.591Z,41.72
2022-12-08T18:11:23.419Z,41.60
2022-12-08T18:14:12.993Z,41.49
2022-12-08T18:16:47.600Z,41.29
2022-12-08T18:19:21.273Z,41.23
2022-12-08T18:21:53.287Z,41.18
2022-12-08T18:24:33.609Z,41.36
2022-12-08T18:27:49.903Z,41.86
2022-12-08T18:30:22.478Z,41.54
2022-12-08T18:33:11.445Z,42.17
2022-12-08T18:35:43.376Z,42.26
2022-12-08T18:38:18.690Z,42.39
2022-12-08T18:40:54.988Z,42.45
2022-12-08T18:44:10.491Z,42.70
2022-12-08T18:46:48.944Z,42.57
2022-12-08T18:52:41.021Z,42.35
2022-12-08T18:55:13.601Z,42.17
2022-12-08T18:57:48.844Z,41.44
2022-12-08T19:00:23.042Z,41.57
2022-12-08T19:03:32.635Z,41.69
2022-12-08T19:06:14.361Z,41.56
2022-12-08T19:08:48.960Z,40.91
2022-12-08T19:11:42.765Z,40.76
2022-12-08T19:14:24.040Z,40.71
2022-12-08T19:17:14.978Z,40.96
2022-12-08T19:19:50.706Z,40.96
2022-12-08T19:22:25.335Z,41.14
2022-12-08T19:25:14.905Z,41.12
2022-12-08T19:27:53.223Z,40.99
2022-12-08T19:30:23.657Z,41.07
2022-12-08T19:33:14.380Z,41.34
2022-12-08T19:35:52.907Z,42.08
2022-12-08T19:38:28.616Z,42.23
2022-12-08T19:41:38.033Z,42.09
2022-12-08T19:44:41.589Z,41.40
2022-12-08T19:47:11.516Z,41.29
2022-12-08T19:49:43.293Z,41.13
2022-12-08T19:52:22.601Z,41.44
2022-12-08T20:02:15.118Z,42.61
2022-12-08T20:04:54.632Z,42.14
2022-12-08T20:07:42.863Z,42.11
2022-12-08T20:10:23.520Z,41.47
2022-12-08T20:13:32.905Z,41.53
2022-12-08T20:17:19.611Z,42.15
2022-12-08T20:20:11.460Z,43.56
2022-12-08T20:22:50.478Z,41.67
2022-12-08T20:25:51.444Z,41.27
2022-12-08T20:28:25.839Z,40.90
2022-12-08T20:31:09.421Z,40.70
2022-12-08T20:33:48.902Z,40.60
2022-12-08T20:36:34.904Z,40.68
2022-12-08T20:39:23.166Z,40.63
2022-12-08T20:42:09.172Z,40.62
2022-12-08T20:44:53.974Z,40.51
2022-12-08T20:47:42.902Z,40.84
2022-12-08T20:50:17.815Z,40.85
2022-12-08T20:52:49.687Z,40.53
2022-12-08T20:55:22.141Z,40.52
2022-12-08T20:58:45.472Z,41.36
2022-12-08T21:02:28.156Z,41.54
2022-12-08T21:18:23.599Z,42.27
2022-12-08T21:38:54.291Z,41.30
2022-12-08T22:30:17.179Z,41.05
2022-12-08T22:32:49.336Z,40.05
2022-12-08T22:35:22.891Z,39.71
2022-12-08T22:37:56.557Z,40.12
2022-12-08T22:40:29.581Z,40.00
2022-12-08T22:43:04.843Z,39.66
2022-12-08T22:45:34.630Z,39.79
2022-12-08T22:48:05.063Z,39.70
2022-12-08T22:50:36.986Z,39.64
2022-12-08T22:53:06.907Z,39.53
2022-12-08T22:55:43.309Z,40.11
2022-12-08T22:58:17.116Z,40.54
2022-12-08T23:00:47.324Z,39.87
2022-12-08T23:03:19.160Z,39.94
2022-12-08T23:05:54.292Z,39.37
2022-12-08T23:08:25.547Z,40.35
2022-12-08T23:11:01.257Z,40.72
2022-12-08T23:13:31.635Z,40.61
2022-12-08T23:16:03.183Z,40.34
2022-12-08T23:18:57.999Z,39.27
2022-12-08T23:21:34.861Z,39.52
2022-12-08T23:24:07.016Z,39.68
2022-12-08T23:26:38.249Z,39.43
2022-12-08T23:29:09.097Z,39.38
2022-12-08T23:31:40.896Z,39.44
2022-12-08T23:34:12.986Z,38.95
2022-12-08T23:36:43.323Z,39.23
2022-12-08T23:39:14.257Z,38.95
2022-12-08T23:41:45.387Z,39.15
2022-12-08T23:44:15.374Z,38.85
2022-12-08T23:46:46.661Z,38.74
2022-12-08T23:49:18.228Z,38.87
2022-12-08T23:51:50.505Z,39.25
2022-12-08T23:54:21.193Z,39.31
2022-12-08T23:56:51.266Z,39.15
2022-12-08T23:59:22.115Z,39.18
